sensor_id;sensor_type;location;lat;lon;timestamp;noise_LAeq;noise_LA_min;noise_LA_max;noise_LA01;noise_LA95
69615;Laerm;56821;52.486;4.680;2023-06-26T00:00:07;43.91;37.26;57.87;;
69615;Laerm;56821;52.486;4.680;2023-06-26T00:00:18;49.56;36.79;64.32;;
69615;Laerm;56821;52.486;4.680;2023-06-26T00:00:28;38.30;36.14;47.77;;
69615;Laerm;56821;52.486;4.680;2023-06-26T00:00:38;37.88;36.28;39.65;;
69615;Laerm;56821;52.486;4.680;2023-06-26T00:00:49;37.94;35.87;39.47;;
69615;Laerm;56821;52.486;4.680;2023-06-26T00:00:59;39.72;35.71;52.68;;
69615;Laerm;56821;52.486;4.680;2023-06-26T00:01:11;38.80;35.60;43.51;;
69615;Laerm;56821;52.486;4.680;2023-06-26T00:01:21;40.45;37.10;48.80;;
69615;Laerm;56821;52.486;4.680;2023-06-26T00:01:32;41.80;36.45;52.99;;
69615;Laerm;56821;52.486;4.680;2023-06-26T00:01:42;38.52;36.08;42.68;;
69615;Laerm;56821;52.486;4.680;2023-06-26T00:01:53;38.96;36.09;45.22;;
69615;Laerm;56821;52.486;4.680;2023-06-26T00:02:03;38.34;36.62;41.59;;
69615;Laerm;56821;52.486;4.680;2023-06-26T00:02:13;37.30;34.88;42.29;;
69615;Laerm;56821;52.486;4.680;2023-06-26T00:02:23;37.63;35.32;39.22;;
69615;Laerm;56821;52.486;4.680;2023-06-26T00:02:34;37.84;36.24;39.55;;
69615;Laerm;56821;52.486;4.680;2023-06-26T00:02:44;37.82;36.38;41.25;;
69615;Laerm;56821;52.486;4.680;2023-06-26T00:02:54;37.96;36.02;39.47;;
69615;Laerm;56821;52.486;4.680;2023-06-26T00:03:05;38.45;36.68;41.50;;
69615;Laerm;56821;52.486;4.680;2023-06-26T00:03:15;41.40;37.25;59.70;;
69615;Laerm;56821;52.486;4.680;2023-06-26T00:03:25;40.94;36.90;53.31;;
69615;Laerm;56821;52.486;4.680;2023-06-26T00:03:35;42.78;36.44;61.81;;
69615;Laerm;56821;52.486;4.680;2023-06-26T00:03:46;38.20;35.32;48.40;;
69615;Laerm;56821;52.486;4.680;2023-06-26T00:03:59;36.85;35.49;38.93;;
69615;Laerm;56821;52.486;4.680;2023-06-26T00:04:10;38.14;36.25;39.92;;
69615;Laerm;56821;52.486;4.680;2023-06-26T00:04:24;38.36;35.73;51.63;;
69615;Laerm;56821;52.486;4.680;2023-06-26T00:04:34;38.00;36.50;40.78;;
69615;Laerm;56821;52.486;4.680;2023-06-26T00:04:45;39.41;36.74;52.21;;
69615;Laerm;56821;52.486;4.680;2023-06-26T00:04:55;39.32;36.97;41.52;;
69615;Laerm;56821;52.486;4.680;2023-06-26T00:05:06;40.97;38.06;49.55;;
69615;Laerm;56821;52.486;4.680;2023-06-26T00:05:16;38.27;36.55;45.38;;
69615;Laerm;56821;52.486;4.680;2023-06-26T00:05:27;37.58;35.34;45.12;;
69615;Laerm;56821;52.486;4.680;2023-06-26T00:05:38;37.78;34.79;50.51;;
69615;Laerm;56821;52.486;4.680;2023-06-26T00:05:48;37.44;35.28;43.88;;
69615;Laerm;56821;52.486;4.680;2023-06-26T00:05:58;36.86;35.50;38.32;;
69615;Laerm;56821;52.486;4.680;2023-06-26T00:06:10;36.72;34.02;38.43;;
69615;Laerm;56821;52.486;4.680;2023-06-26T00:06:20;44.18;36.79;53.51;;
69615;Laerm;56821;52.486;4.680;2023-06-26T00:06:30;40.50;37.40;48.28;;
69615;Laerm;56821;52.486;4.680;2023-06-26T00:06:41;42.29;37.66;53.64;;
69615;Laerm;56821;52.486;4.680;2023-06-26T00:06:51;41.27;37.86;51.18;;
69615;Laerm;56821;52.486;4.680;2023-06-26T00:07:01;39.17;36.73;48.92;;
69615;Laerm;56821;52.486;4.680;2023-06-26T00:07:12;39.93;37.39;47.66;;
69615;Laerm;56821;52.486;4.680;2023-06-26T00:07:22;40.63;37.62;53.55;;
69615;Laerm;56821;52.486;4.680;2023-06-26T00:07:32;39.90;37.14;49.02;;
69615;Laerm;56821;52.486;4.680;2023-06-26T00:07:44;41.30;36.35;55.16;;
69615;Laerm;56821;52.486;4.680;2023-06-26T00:07:54;47.73;36.81;62.55;;
69615;Laerm;56821;52.486;4.680;2023-06-26T00:08:04;38.14;36.25;40.80;;
69615;Laerm;56821;52.486;4.680;2023-06-26T00:08:15;38.34;36.09;43.65;;
69615;Laerm;56821;52.486;4.680;2023-06-26T00:08:26;39.76;37.44;47.55;;
69615;Laerm;56821;52.486;4.680;2023-06-26T00:08:37;39.64;37.43;45.52;;
69615;Laerm;56821;52.486;4.680;2023-06-26T00:08:47;38.82;36.81;46.96;;
69615;Laerm;56821;52.486;4.680;2023-06-26T00:08:57;38.79;36.32;43.80;;
69615;Laerm;56821;52.486;4.680;2023-06-26T00:09:08;38.52;36.59;45.93;;
69615;Laerm;56821;52.486;4.680;2023-06-26T00:09:18;39.48;37.31;44.37;;
69615;Laerm;56821;52.486;4.680;2023-06-26T00:09:29;39.89;36.30;55.15;;
69615;Laerm;56821;52.486;4.680;2023-06-26T00:09:39;39.13;37.40;45.86;;
69615;Laerm;56821;52.486;4.680;2023-06-26T00:09:49;46.10;39.20;62.68;;
69615;Laerm;56821;52.486;4.680;2023-06-26T00:10:00;49.40;36.99;64.34;;
69615;Laerm;56821;52.486;4.680;2023-06-26T00:10:10;40.56;36.88;48.63;;
69615;Laerm;56821;52.486;4.680;2023-06-26T00:10:20;39.18;36.10;47.91;;
69615;Laerm;56821;52.486;4.680;2023-06-26T00:10:31;48.79;38.31;61.05;;
69615;Laerm;56821;52.486;4.680;2023-06-26T00:10:41;46.26;38.74;63.93;;
69615;Laerm;56821;52.486;4.680;2023-06-26T00:10:51;39.82;37.05;52.65;;
69615;Laerm;56821;52.486;4.680;2023-06-26T00:11:01;37.73;35.40;42.57;;
69615;Laerm;56821;52.486;4.680;2023-06-26T00:11:12;37.84;36.05;42.76;;
69615;Laerm;56821;52.486;4.680;2023-06-26T00:11:22;40.97;37.45;49.57;;
69615;Laerm;56821;52.486;4.680;2023-06-26T00:11:32;45.11;37.79;57.10;;
69615;Laerm;56821;52.486;4.680;2023-06-26T00:11:43;45.20;37.26;56.86;;
69615;Laerm;56821;52.486;4.680;2023-06-26T00:11:53;45.10;36.05;59.26;;
69615;Laerm;56821;52.486;4.680;2023-06-26T00:12:03;55.68;37.60;72.49;;
69615;Laerm;56821;52.486;4.680;2023-06-26T00:12:14;44.30;37.93;59.86;;
69615;Laerm;56821;52.486;4.680;2023-06-26T00:12:24;39.11;36.45;50.49;;
69615;Laerm;56821;52.486;4.680;2023-06-26T00:12:34;45.42;37.27;61.11;;
69615;Laerm;56821;52.486;4.680;2023-06-26T00:12:45;39.58;36.21;49.97;;
69615;Laerm;56821;52.486;4.680;2023-06-26T00:12:55;37.89;36.12;42.05;;
69615;Laerm;56821;52.486;4.680;2023-06-26T00:13:05;37.25;35.50;39.78;;
69615;Laerm;56821;52.486;4.680;2023-06-26T00:13:15;37.67;36.22;39.13;;
69615;Laerm;56821;52.486;4.680;2023-06-26T00:13:25;38.46;36.36;41.00;;
69615;Laerm;56821;52.486;4.680;2023-06-26T00:13:36;38.14;36.19;42.47;;
69615;Laerm;56821;52.486;4.680;2023-06-26T00:13:46;38.07;36.78;40.08;;
69615;Laerm;56821;52.486;4.680;2023-06-26T00:13:57;38.87;36.70;46.69;;
69615;Laerm;56821;52.486;4.680;2023-06-26T00:14:07;38.01;36.47;40.68;;
69615;Laerm;56821;52.486;4.680;2023-06-26T00:14:17;37.18;35.67;38.89;;
69615;Laerm;56821;52.486;4.680;2023-06-26T00:14:30;38.48;35.84;40.53;;
69615;Laerm;56821;52.486;4.680;2023-06-26T00:14:41;39.04;37.19;40.64;;
69615;Laerm;56821;52.486;4.680;2023-06-26T00:14:51;39.66;37.56;46.56;;
69615;Laerm;56821;52.486;4.680;2023-06-26T00:15:01;40.36;36.87;51.07;;
69615;Laerm;56821;52.486;4.680;2023-06-26T00:15:12;40.21;36.55;50.63;;
69615;Laerm;56821;52.486;4.680;2023-06-26T00:15:22;38.54;36.94;41.51;;
69615;Laerm;56821;52.486;4.680;2023-06-26T00:15:32;38.81;36.26;48.29;;
69615;Laerm;56821;52.486;4.680;2023-06-26T00:15:43;37.38;35.55;38.85;;
69615;Laerm;56821;52.486;4.680;2023-06-26T00:15:53;38.86;36.91;41.86;;
69615;Laerm;56821;52.486;4.680;2023-06-26T00:16:03;39.78;36.15;43.56;;
69615;Laerm;56821;52.486;4.680;2023-06-26T00:16:14;41.90;39.17;44.62;;
69615;Laerm;56821;52.486;4.680;2023-06-26T00:16:24;41.59;38.55;51.15;;
69615;Laerm;56821;52.486;4.680;2023-06-26T00:16:35;40.01;38.25;42.54;;
69615;Laerm;56821;52.486;4.680;2023-06-26T00:16:48;41.35;37.13;54.75;;
69615;Laerm;56821;52.486;4.680;2023-06-26T00:16:59;44.51;37.53;57.99;;
69615;Laerm;56821;52.486;4.680;2023-06-26T00:17:09;40.80;37.57;44.54;;
69615;Laerm;56821;52.486;4.680;2023-06-26T00:17:21;42.56;35.48;53.94;;
69615;Laerm;56821;52.486;4.680;2023-06-26T00:17:31;37.46;35.84;39.96;;
69615;Laerm;56821;52.486;4.680;2023-06-26T00:17:46;38.70;35.51;40.70;;
69615;Laerm;56821;52.486;4.680;2023-06-26T00:17:57;39.71;37.81;42.10;;
69615;Laerm;56821;52.486;4.680;2023-06-26T00:18:07;42.08;38.89;44.86;;
69615;Laerm;56821;52.486;4.680;2023-06-26T00:18:18;47.37;39.99;56.64;;
69615;Laerm;56821;52.486;4.680;2023-06-26T00:18:28;45.16;38.47;55.45;;
69615;Laerm;56821;52.486;4.680;2023-06-26T00:18:38;55.12;38.18;68.42;;
69615;Laerm;56821;52.486;4.680;2023-06-26T00:18:49;39.62;37.98;42.41;;
69615;Laerm;56821;52.486;4.680;2023-06-26T00:18:59;41.45;38.73;50.78;;
69615;Laerm;56821;52.486;4.680;2023-06-26T00:19:09;40.13;37.47;48.32;;
69615;Laerm;56821;52.486;4.680;2023-06-26T00:19:19;43.46;38.79;60.41;;
69615;Laerm;56821;52.486;4.680;2023-06-26T00:19:30;42.00;38.43;53.19;;
69615;Laerm;56821;52.486;4.680;2023-06-26T00:19:40;40.57;38.67;42.60;;
69615;Laerm;56821;52.486;4.680;2023-06-26T00:19:50;39.63;37.90;42.25;;
69615;Laerm;56821;52.486;4.680;2023-06-26T00:20:00;40.27;37.41;46.39;;
69615;Laerm;56821;52.486;4.680;2023-06-26T00:20:15;40.57;37.99;54.27;;
69615;Laerm;56821;52.486;4.680;2023-06-26T00:20:26;41.25;39.53;43.59;;
69615;Laerm;56821;52.486;4.680;2023-06-26T00:20:36;41.85;39.48;49.38;;
69615;Laerm;56821;52.486;4.680;2023-06-26T00:20:46;42.56;40.37;49.48;;
69615;Laerm;56821;52.486;4.680;2023-06-26T00:20:57;42.61;39.58;49.43;;
69615;Laerm;56821;52.486;4.680;2023-06-26T00:21:07;41.16;38.49;54.75;;
69615;Laerm;56821;52.486;4.680;2023-06-26T00:21:17;41.36;37.93;54.57;;
69615;Laerm;56821;52.486;4.680;2023-06-26T00:21:29;40.63;37.81;52.73;;
69615;Laerm;56821;52.486;4.680;2023-06-26T00:21:39;41.54;38.86;49.86;;
69615;Laerm;56821;52.486;4.680;2023-06-26T00:21:49;40.48;37.69;52.33;;
69615;Laerm;56821;52.486;4.680;2023-06-26T00:21:59;52.66;39.38;67.58;;
69615;Laerm;56821;52.486;4.680;2023-06-26T00:22:10;45.22;40.00;57.92;;
69615;Laerm;56821;52.486;4.680;2023-06-26T00:22:21;44.55;40.17;53.79;;
69615;Laerm;56821;52.486;4.680;2023-06-26T00:22:31;42.74;39.49;53.87;;
69615;Laerm;56821;52.486;4.680;2023-06-26T00:22:41;44.04;40.99;54.34;;
69615;Laerm;56821;52.486;4.680;2023-06-26T00:22:51;42.11;40.60;43.86;;
69615;Laerm;56821;52.486;4.680;2023-06-26T00:23:03;40.40;39.06;41.87;;
69615;Laerm;56821;52.486;4.680;2023-06-26T00:23:17;41.17;39.49;43.26;;
69615;Laerm;56821;52.486;4.680;2023-06-26T00:23:28;51.96;41.97;67.81;;
69615;Laerm;56821;52.486;4.680;2023-06-26T00:23:40;52.61;41.53;66.35;;
69615;Laerm;56821;52.486;4.680;2023-06-26T00:23:51;43.70;40.36;48.61;;
69615;Laerm;56821;52.486;4.680;2023-06-26T00:24:01;42.87;40.61;46.10;;
69615;Laerm;56821;52.486;4.680;2023-06-26T00:24:12;42.72;40.18;53.37;;
69615;Laerm;56821;52.486;4.680;2023-06-26T00:24:22;45.80;40.10;59.66;;
69615;Laerm;56821;52.486;4.680;2023-06-26T00:24:32;44.21;40.53;54.57;;
69615;Laerm;56821;52.486;4.680;2023-06-26T00:24:42;44.52;40.61;53.00;;
69615;Laerm;56821;52.486;4.680;2023-06-26T00:24:54;42.09;39.44;52.06;;
69615;Laerm;56821;52.486;4.680;2023-06-26T00:25:05;43.49;38.89;56.41;;
69615;Laerm;56821;52.486;4.680;2023-06-26T00:25:15;43.34;39.67;55.53;;
69615;Laerm;56821;52.486;4.680;2023-06-26T00:25:25;39.78;37.90;44.29;;
69615;Laerm;56821;52.486;4.680;2023-06-26T00:25:35;40.93;38.71;50.42;;
69615;Laerm;56821;52.486;4.680;2023-06-26T00:25:46;55.09;39.92;73.28;;
69615;Laerm;56821;52.486;4.680;2023-06-26T00:25:56;46.77;39.70;60.57;;
69615;Laerm;56821;52.486;4.680;2023-06-26T00:26:06;53.21;40.76;65.75;;
69615;Laerm;56821;52.486;4.680;2023-06-26T00:26:16;45.87;39.82;58.47;;
69615;Laerm;56821;52.486;4.680;2023-06-26T00:26:27;48.01;40.71;63.32;;
69615;Laerm;56821;52.486;4.680;2023-06-26T00:26:37;44.64;40.57;58.36;;
69615;Laerm;56821;52.486;4.680;2023-06-26T00:26:47;41.22;39.24;45.94;;
69615;Laerm;56821;52.486;4.680;2023-06-26T00:26:58;41.21;39.29;49.76;;
69615;Laerm;56821;52.486;4.680;2023-06-26T00:27:09;40.90;38.91;42.35;;
69615;Laerm;56821;52.486;4.680;2023-06-26T00:27:19;40.98;38.81;43.38;;
69615;Laerm;56821;52.486;4.680;2023-06-26T00:27:29;40.94;38.56;45.03;;
69615;Laerm;56821;52.486;4.680;2023-06-26T00:27:39;41.95;39.00;50.82;;
69615;Laerm;56821;52.486;4.680;2023-06-26T00:27:50;40.85;39.01;49.17;;
69615;Laerm;56821;52.486;4.680;2023-06-26T00:28:00;40.05;38.78;42.87;;
69615;Laerm;56821;52.486;4.680;2023-06-26T00:28:11;42.50;39.61;55.57;;
69615;Laerm;56821;52.486;4.680;2023-06-26T00:28:21;40.98;38.65;44.01;;
69615;Laerm;56821;52.486;4.680;2023-06-26T00:28:31;41.88;38.22;54.54;;
69615;Laerm;56821;52.486;4.680;2023-06-26T00:28:42;41.93;39.20;55.05;;
69615;Laerm;56821;52.486;4.680;2023-06-26T00:28:52;43.70;40.15;57.93;;
69615;Laerm;56821;52.486;4.680;2023-06-26T00:29:02;42.70;39.61;45.38;;
69615;Laerm;56821;52.486;4.680;2023-06-26T00:29:12;41.88;40.06;45.28;;
69615;Laerm;56821;52.486;4.680;2023-06-26T00:29:22;41.60;39.40;47.04;;
69615;Laerm;56821;52.486;4.680;2023-06-26T00:29:33;41.98;39.90;53.06;;
69615;Laerm;56821;52.486;4.680;2023-06-26T00:29:43;52.38;40.72;66.19;;
69615;Laerm;56821;52.486;4.680;2023-06-26T00:29:53;49.28;40.35;63.92;;
69615;Laerm;56821;52.486;4.680;2023-06-26T00:30:04;47.78;40.72;59.40;;
69615;Laerm;56821;52.486;4.680;2023-06-26T00:30:14;44.66;40.00;54.69;;
69615;Laerm;56821;52.486;4.680;2023-06-26T00:30:24;42.05;39.36;57.58;;
69615;Laerm;56821;52.486;4.680;2023-06-26T00:30:34;46.77;40.19;56.07;;
69615;Laerm;56821;52.486;4.680;2023-06-26T00:30:45;45.72;40.53;59.05;;
69615;Laerm;56821;52.486;4.680;2023-06-26T00:30:55;43.80;38.81;56.23;;
69615;Laerm;56821;52.486;4.680;2023-06-26T00:31:05;41.87;38.96;55.94;;
69615;Laerm;56821;52.486;4.680;2023-06-26T00:31:16;39.62;38.24;41.13;;
69615;Laerm;56821;52.486;4.680;2023-06-26T00:31:26;40.54;38.60;46.29;;
69615;Laerm;56821;52.486;4.680;2023-06-26T00:31:36;47.52;40.42;64.47;;
69615;Laerm;56821;52.486;4.680;2023-06-26T00:31:48;44.58;38.80;61.37;;
69615;Laerm;56821;52.486;4.680;2023-06-26T00:31:58;39.43;37.83;41.14;;
69615;Laerm;56821;52.486;4.680;2023-06-26T00:32:08;38.21;36.24;39.96;;
69615;Laerm;56821;52.486;4.680;2023-06-26T00:32:18;38.10;36.47;40.18;;
69615;Laerm;56821;52.486;4.680;2023-06-26T00:32:28;40.98;37.63;47.29;;
69615;Laerm;56821;52.486;4.680;2023-06-26T00:32:39;41.96;38.58;48.57;;
69615;Laerm;56821;52.486;4.680;2023-06-26T00:32:49;41.70;38.63;47.95;;
69615;Laerm;56821;52.486;4.680;2023-06-26T00:32:59;50.16;38.07;67.29;;
69615;Laerm;56821;52.486;4.680;2023-06-26T00:33:10;39.75;38.10;42.17;;
69615;Laerm;56821;52.486;4.680;2023-06-26T00:33:20;46.60;39.13;61.73;;
69615;Laerm;56821;52.486;4.680;2023-06-26T00:33:30;42.43;38.13;54.56;;
69615;Laerm;56821;52.486;4.680;2023-06-26T00:33:40;40.71;36.85;51.46;;
69615;Laerm;56821;52.486;4.680;2023-06-26T00:33:51;37.76;35.90;39.19;;
69615;Laerm;56821;52.486;4.680;2023-06-26T00:34:01;37.54;35.86;39.02;;
69615;Laerm;56821;52.486;4.680;2023-06-26T00:34:12;38.68;36.70;40.80;;
69615;Laerm;56821;52.486;4.680;2023-06-26T00:34:22;41.37;37.73;48.68;;
69615;Laerm;56821;52.486;4.680;2023-06-26T00:34:32;43.28;38.44;60.03;;
69615;Laerm;56821;52.486;4.680;2023-06-26T00:34:42;39.87;38.16;42.79;;
69615;Laerm;56821;52.486;4.680;2023-06-26T00:34:52;41.01;38.90;42.51;;
69615;Laerm;56821;52.486;4.680;2023-06-26T00:35:03;41.18;39.46;49.55;;
69615;Laerm;56821;52.486;4.680;2023-06-26T00:35:13;41.32;40.09;45.66;;
69615;Laerm;56821;52.486;4.680;2023-06-26T00:35:23;46.09;38.99;61.93;;
69615;Laerm;56821;52.486;4.680;2023-06-26T00:35:34;43.15;40.15;52.22;;
69615;Laerm;56821;52.486;4.680;2023-06-26T00:35:45;42.55;39.82;49.75;;
69615;Laerm;56821;52.486;4.680;2023-06-26T00:35:55;40.97;38.84;45.31;;
69615;Laerm;56821;52.486;4.680;2023-06-26T00:36:05;41.06;38.92;45.14;;
69615;Laerm;56821;52.486;4.680;2023-06-26T00:36:16;42.88;40.55;51.50;;
69615;Laerm;56821;52.486;4.680;2023-06-26T00:36:26;43.70;40.79;53.19;;
69615;Laerm;56821;52.486;4.680;2023-06-26T00:36:36;51.90;42.03;69.77;;
69615;Laerm;56821;52.486;4.680;2023-06-26T00:36:46;52.96;42.03;65.87;;
69615;Laerm;56821;52.486;4.680;2023-06-26T00:36:56;47.12;42.30;63.33;;
69615;Laerm;56821;52.486;4.680;2023-06-26T00:37:07;50.57;43.55;63.01;;
69615;Laerm;56821;52.486;4.680;2023-06-26T00:37:17;46.19;42.10;55.89;;
69615;Laerm;56821;52.486;4.680;2023-06-26T00:37:27;43.09;41.06;45.83;;
69615;Laerm;56821;52.486;4.680;2023-06-26T00:37:37;43.34;40.10;54.20;;
69615;Laerm;56821;52.486;4.680;2023-06-26T00:37:48;61.84;42.12;81.81;;
69615;Laerm;56821;52.486;4.680;2023-06-26T00:37:58;54.10;42.38;70.69;;
69615;Laerm;56821;52.486;4.680;2023-06-26T00:38:09;48.69;41.93;59.91;;
69615;Laerm;56821;52.486;4.680;2023-06-26T00:38:19;47.53;43.72;53.51;;
69615;Laerm;56821;52.486;4.680;2023-06-26T00:38:29;48.51;44.78;54.11;;
69615;Laerm;56821;52.486;4.680;2023-06-26T00:38:39;49.35;41.78;65.48;;
69615;Laerm;56821;52.486;4.680;2023-06-26T00:38:50;45.35;39.86;56.82;;
69615;Laerm;56821;52.486;4.680;2023-06-26T00:39:00;42.29;40.29;44.30;;
69615;Laerm;56821;52.486;4.680;2023-06-26T00:39:10;48.67;41.38;61.28;;
69615;Laerm;56821;52.486;4.680;2023-06-26T00:39:21;42.50;39.80;45.78;;
69615;Laerm;56821;52.486;4.680;2023-06-26T00:39:31;42.76;41.16;45.55;;
69615;Laerm;56821;52.486;4.680;2023-06-26T00:39:42;45.18;41.34;56.38;;
69615;Laerm;56821;52.486;4.680;2023-06-26T00:39:52;42.31;40.40;44.38;;
69615;Laerm;56821;52.486;4.680;2023-06-26T00:40:02;42.24;40.46;43.75;;
69615;Laerm;56821;52.486;4.680;2023-06-26T00:40:15;49.29;41.26;62.90;;
69615;Laerm;56821;52.486;4.680;2023-06-26T00:40:25;49.16;41.17;60.97;;
69615;Laerm;56821;52.486;4.680;2023-06-26T00:40:36;45.53;38.88;61.09;;
69615;Laerm;56821;52.486;4.680;2023-06-26T00:40:47;40.12;37.76;46.36;;
69615;Laerm;56821;52.486;4.680;2023-06-26T00:40:57;40.44;38.48;42.11;;
69615;Laerm;56821;52.486;4.680;2023-06-26T00:41:07;41.78;38.51;54.57;;
69615;Laerm;56821;52.486;4.680;2023-06-26T00:41:22;41.72;38.72;50.81;;
69615;Laerm;56821;52.486;4.680;2023-06-26T00:41:32;43.10;40.91;50.62;;
69615;Laerm;56821;52.486;4.680;2023-06-26T00:41:42;41.38;39.24;43.18;;
69615;Laerm;56821;52.486;4.680;2023-06-26T00:41:53;41.22;39.67;42.44;;
69615;Laerm;56821;52.486;4.680;2023-06-26T00:42:06;51.87;40.65;65.51;;
69615;Laerm;56821;52.486;4.680;2023-06-26T00:42:16;43.64;39.30;49.42;;
69615;Laerm;56821;52.486;4.680;2023-06-26T00:42:26;41.50;39.72;42.96;;
69615;Laerm;56821;52.486;4.680;2023-06-26T00:42:37;42.11;39.06;45.36;;
69615;Laerm;56821;52.486;4.680;2023-06-26T00:42:47;44.60;41.63;48.14;;
69615;Laerm;56821;52.486;4.680;2023-06-26T00:42:57;44.68;40.82;53.68;;
69615;Laerm;56821;52.486;4.680;2023-06-26T00:43:07;45.81;40.15;58.73;;
69615;Laerm;56821;52.486;4.680;2023-06-26T00:43:18;48.45;42.30;62.04;;
69615;Laerm;56821;52.486;4.680;2023-06-26T00:43:28;49.84;42.55;69.17;;
69615;Laerm;56821;52.486;4.680;2023-06-26T00:43:38;48.62;41.45;61.94;;
69615;Laerm;56821;52.486;4.680;2023-06-26T00:43:49;44.04;41.60;49.78;;
69615;Laerm;56821;52.486;4.680;2023-06-26T00:43:59;55.27;40.53;68.37;;
69615;Laerm;56821;52.486;4.680;2023-06-26T00:44:10;50.26;39.99;67.94;;
69615;Laerm;56821;52.486;4.680;2023-06-26T00:44:20;50.73;41.46;65.82;;
69615;Laerm;56821;52.486;4.680;2023-06-26T00:44:30;42.88;40.52;51.35;;
69615;Laerm;56821;52.486;4.680;2023-06-26T00:44:40;50.85;41.66;63.14;;
69615;Laerm;56821;52.486;4.680;2023-06-26T00:44:51;43.49;38.96;56.08;;
69615;Laerm;56821;52.486;4.680;2023-06-26T00:45:01;40.09;38.49;43.72;;
69615;Laerm;56821;52.486;4.680;2023-06-26T00:45:11;40.31;38.21;42.37;;
69615;Laerm;56821;52.486;4.680;2023-06-26T00:45:21;40.20;37.12;42.86;;
69615;Laerm;56821;52.486;4.680;2023-06-26T00:45:32;48.92;40.07;63.65;;
69615;Laerm;56821;52.486;4.680;2023-06-26T00:45:42;44.35;39.36;53.84;;
69615;Laerm;56821;52.486;4.680;2023-06-26T00:45:52;40.24;38.57;43.60;;
69615;Laerm;56821;52.486;4.680;2023-06-26T00:46:02;40.76;38.42;44.33;;
69615;Laerm;56821;52.486;4.680;2023-06-26T00:46:13;40.93;39.41;48.03;;
69615;Laerm;56821;52.486;4.680;2023-06-26T00:46:23;47.07;39.70;63.17;;
69615;Laerm;56821;52.486;4.680;2023-06-26T00:46:34;41.14;39.02;48.69;;
69615;Laerm;56821;52.486;4.680;2023-06-26T00:46:45;42.36;39.06;52.20;;
69615;Laerm;56821;52.486;4.680;2023-06-26T00:46:55;39.91;38.36;41.86;;
69615;Laerm;56821;52.486;4.680;2023-06-26T00:47:06;40.31;38.63;43.30;;
69615;Laerm;56821;52.486;4.680;2023-06-26T00:47:17;41.79;38.80;46.03;;
69615;Laerm;56821;52.486;4.680;2023-06-26T00:47:28;42.73;40.80;45.88;;
69615;Laerm;56821;52.486;4.680;2023-06-26T00:47:38;47.23;40.54;58.35;;
69615;Laerm;56821;52.486;4.680;2023-06-26T00:47:48;43.28;41.06;47.84;;
69615;Laerm;56821;52.486;4.680;2023-06-26T00:47:59;42.12;40.60;44.97;;
69615;Laerm;56821;52.486;4.680;2023-06-26T00:48:10;43.00;40.34;47.11;;
69615;Laerm;56821;52.486;4.680;2023-06-26T00:48:22;41.45;39.68;46.02;;
69615;Laerm;56821;52.486;4.680;2023-06-26T00:48:32;45.83;39.85;61.92;;
69615;Laerm;56821;52.486;4.680;2023-06-26T00:48:43;43.98;38.78;57.81;;
69615;Laerm;56821;52.486;4.680;2023-06-26T00:48:54;42.28;38.52;51.88;;
69615;Laerm;56821;52.486;4.680;2023-06-26T00:49:05;40.37;38.22;45.69;;
69615;Laerm;56821;52.486;4.680;2023-06-26T00:49:15;39.63;37.77;42.70;;
69615;Laerm;56821;52.486;4.680;2023-06-26T00:49:26;39.66;38.14;45.12;;
69615;Laerm;56821;52.486;4.680;2023-06-26T00:49:36;43.98;37.85;59.48;;
69615;Laerm;56821;52.486;4.680;2023-06-26T00:49:46;42.63;38.52;54.36;;
69615;Laerm;56821;52.486;4.680;2023-06-26T00:49:57;42.47;38.15;54.88;;
69615;Laerm;56821;52.486;4.680;2023-06-26T00:50:07;41.88;38.34;53.25;;
69615;Laerm;56821;52.486;4.680;2023-06-26T00:50:18;40.39;38.50;41.81;;
69615;Laerm;56821;52.486;4.680;2023-06-26T00:50:28;40.88;38.72;44.47;;
69615;Laerm;56821;52.486;4.680;2023-06-26T00:50:39;41.46;39.02;46.91;;
69615;Laerm;56821;52.486;4.680;2023-06-26T00:50:50;39.52;37.74;41.81;;
69615;Laerm;56821;52.486;4.680;2023-06-26T00:51:00;38.94;37.22;40.55;;
69615;Laerm;56821;52.486;4.680;2023-06-26T00:51:12;40.48;38.02;42.27;;
69615;Laerm;56821;52.486;4.680;2023-06-26T00:51:22;41.71;39.35;46.77;;
69615;Laerm;56821;52.486;4.680;2023-06-26T00:51:32;44.08;37.89;54.48;;
69615;Laerm;56821;52.486;4.680;2023-06-26T00:51:43;39.19;37.52;41.96;;
69615;Laerm;56821;52.486;4.680;2023-06-26T00:51:53;38.91;37.41;40.51;;
69615;Laerm;56821;52.486;4.680;2023-06-26T00:52:04;39.20;37.09;46.91;;
69615;Laerm;56821;52.486;4.680;2023-06-26T00:52:15;39.38;37.66;47.75;;
69615;Laerm;56821;52.486;4.680;2023-06-26T00:52:26;38.76;36.61;41.12;;
69615;Laerm;56821;52.486;4.680;2023-06-26T00:52:37;39.81;37.10;43.15;;
69615;Laerm;56821;52.486;4.680;2023-06-26T00:52:47;43.39;39.49;54.47;;
69615;Laerm;56821;52.486;4.680;2023-06-26T00:52:57;39.49;37.45;45.15;;
69615;Laerm;56821;52.486;4.680;2023-06-26T00:53:10;40.00;37.74;47.62;;
69615;Laerm;56821;52.486;4.680;2023-06-26T00:53:21;41.61;38.29;51.54;;
69615;Laerm;56821;52.486;4.680;2023-06-26T00:53:32;40.77;38.15;42.83;;
69615;Laerm;56821;52.486;4.680;2023-06-26T00:53:42;41.46;39.99;43.91;;
69615;Laerm;56821;52.486;4.680;2023-06-26T00:53:53;41.27;38.64;52.01;;
69615;Laerm;56821;52.486;4.680;2023-06-26T00:54:04;42.53;38.68;53.55;;
69615;Laerm;56821;52.486;4.680;2023-06-26T00:54:14;51.14;40.42;63.91;;
69615;Laerm;56821;52.486;4.680;2023-06-26T00:54:30;42.19;38.89;52.63;;
69615;Laerm;56821;52.486;4.680;2023-06-26T00:54:41;40.24;38.09;49.90;;
69615;Laerm;56821;52.486;4.680;2023-06-26T00:54:51;42.51;40.18;45.10;;
69615;Laerm;56821;52.486;4.680;2023-06-26T00:55:01;45.04;38.77;60.95;;
69615;Laerm;56821;52.486;4.680;2023-06-26T00:55:12;47.95;39.17;62.96;;
69615;Laerm;56821;52.486;4.680;2023-06-26T00:55:22;42.27;38.23;54.50;;
69615;Laerm;56821;52.486;4.680;2023-06-26T00:55:32;40.09;37.55;42.20;;
69615;Laerm;56821;52.486;4.680;2023-06-26T00:55:43;41.11;38.40;44.10;;
69615;Laerm;56821;52.486;4.680;2023-06-26T00:55:53;42.19;39.88;48.76;;
69615;Laerm;56821;52.486;4.680;2023-06-26T00:56:03;41.53;39.76;45.13;;
69615;Laerm;56821;52.486;4.680;2023-06-26T00:56:15;43.40;40.47;53.96;;
69615;Laerm;56821;52.486;4.680;2023-06-26T00:56:26;42.03;39.03;52.24;;
69615;Laerm;56821;52.486;4.680;2023-06-26T00:56:37;40.70;39.04;42.36;;
69615;Laerm;56821;52.486;4.680;2023-06-26T00:56:48;41.12;39.49;42.93;;
69615;Laerm;56821;52.486;4.680;2023-06-26T00:56:58;41.99;40.39;47.92;;
69615;Laerm;56821;52.486;4.680;2023-06-26T00:57:09;41.52;39.31;43.94;;
69615;Laerm;56821;52.486;4.680;2023-06-26T00:57:19;45.68;39.77;62.72;;
69615;Laerm;56821;52.486;4.680;2023-06-26T00:57:30;42.64;40.90;44.52;;
69615;Laerm;56821;52.486;4.680;2023-06-26T00:57:40;41.42;38.86;43.94;;
69615;Laerm;56821;52.486;4.680;2023-06-26T00:57:50;40.87;39.32;46.40;;
69615;Laerm;56821;52.486;4.680;2023-06-26T00:58:00;51.16;40.61;64.30;;
69615;Laerm;56821;52.486;4.680;2023-06-26T00:58:11;41.85;38.61;51.45;;
69615;Laerm;56821;52.486;4.680;2023-06-26T00:58:21;40.88;38.94;43.67;;
69615;Laerm;56821;52.486;4.680;2023-06-26T00:58:33;41.65;40.01;47.97;;
69615;Laerm;56821;52.486;4.680;2023-06-26T00:58:43;41.86;40.30;43.65;;
69615;Laerm;56821;52.486;4.680;2023-06-26T00:58:54;42.65;39.79;45.38;;
69615;Laerm;56821;52.486;4.680;2023-06-26T00:59:04;42.15;40.78;43.95;;